Time;durP1;ratioP1;P1;durP2;ratioP2;P2;SDS_P1;SDS_P2;PMS_P1;PMS_P2;Temp;Humidity;BMP_temperature;BMP_pressure;BME280_temperature;BME280_humidity;BME280_pressure;Samples;Min_cycle;Max_cycle;Signal;HPM_P1;HPM_P2
2021/04/23 00:02:08;;;;;;;6.95;5.03;;;384.10;1587.20;;;;;;4812165;29;20064;-86
2021/04/23 00:04:35;;;;;;;7.25;4.97;;;384.10;1587.20;;;;;;4810379;29;20042;-90
2021/04/23 00:07:02;;;;;;;5.97;4.40;;;384.10;1587.20;;;;;;4811884;29;20034;-91
2021/04/23 00:09:33;;;;;;;7.43;4.40;;;384.00;1612.80;;;;;;4812442;29;20038;-91
2021/04/23 00:12:00;;;;;;;5.10;3.33;;;384.00;1612.80;;;;;;4811892;29;20488;-91
2021/04/23 00:14:45;;;;;;;8.65;4.00;;;384.00;1587.20;;;;;;4812339;29;20039;-91
2021/04/23 00:17:11;;;;;;;9.13;3.92;;;359.30;1612.80;;;;;;4811773;29;20115;-90
2021/04/23 00:19:38;;;;;;;5.50;4.00;;;359.30;1612.80;;;;;;4811670;29;20042;-91
2021/04/23 00:22:06;;;;;;;6.63;4.57;;;359.30;1612.80;;;;;;4811384;29;20050;-91
2021/04/23 00:24:33;;;;;;;7.88;5.03;;;384.00;1612.80;;;;;;4811732;29;20057;-91
2021/04/23 00:26:59;;;;;;;8.43;5.15;;;384.00;1612.80;;;;;;4811888;29;20049;-91
2021/04/23 00:29:25;;;;;;;9.88;6.80;;;384.00;1612.80;;;;;;4811729;29;20567;-90
2021/04/23 00:32:07;;;;;;;7.07;5.15;;;384.00;1612.80;;;;;;4811896;29;20074;-91
2021/04/23 00:34:33;;;;;;;5.35;4.18;;;384.00;1612.80;;;;;;4812122;29;20044;-90
2021/04/23 00:36:59;;;;;;;6.78;4.22;;;359.30;1612.80;;;;;;4811566;29;20042;-91
2021/04/23 00:39:26;;;;;;;8.32;4.97;;;359.30;1612.80;;;;;;4811442;29;20149;-90
2021/04/23 00:41:52;;;;;;;5.80;3.55;;;359.10;1664.00;;;;;;4811700;29;20457;-91
2021/04/23 00:44:18;;;;;;;6.53;3.80;;;359.00;1664.00;;;;;;4811606;29;20079;-91
2021/04/23 00:46:43;;;;;;;8.02;4.10;;;359.00;1715.20;;;;;;4812606;29;20034;-91
2021/04/23 00:49:09;;;;;;;7.45;3.83;;;359.00;1715.20;;;;;;4834441;29;20033;-92
2021/04/23 00:51:51;;;;;;;8.63;4.22;;;358.90;1715.20;;;;;;4834285;29;20117;-89
2021/04/23 00:54:17;;;;;;;6.50;3.90;;;359.00;1715.20;;;;;;4833649;29;20053;-90
2021/04/23 00:56:43;;;;;;;6.07;5.05;;;358.90;1715.20;;;;;;4826091;29;20544;-91
2021/04/23 00:59:13;;;;;;;6.18;4.65;;;358.90;1715.20;;;;;;4811218;29;20046;-91
2021/04/23 01:01:46;;;;;;;6.90;4.68;;;358.80;1740.80;;;;;;4810974;29;20045;-90
2021/04/23 01:04:15;;;;;;;7.00;3.70;;;358.80;1740.80;;;;;;4811135;29;20043;-91
2021/04/23 01:06:41;;;;;;;6.22;5.03;;;358.80;1740.80;;;;;;4810776;29;20031;-91
2021/04/23 01:09:17;;;;;;;6.78;4.97;;;358.90;1740.80;;;;;;4811284;29;20038;-90
2021/04/23 01:11:43;;;;;;;5.97;3.58;;;358.80;1740.80;;;;;;4811524;29;20034;-90
2021/04/23 01:14:10;;;;;;;6.28;4.35;;;358.80;1740.80;;;;;;4809761;29;20080;-91
2021/04/23 01:16:39;;;;;;;5.35;3.60;;;358.90;1740.80;;;;;;4799531;29;20091;-91
2021/04/23 01:19:07;;;;;;;5.60;3.65;;;358.90;1715.20;;;;;;4811420;29;20042;-91
2021/04/23 01:21:35;;;;;;;5.68;4.03;;;358.80;1740.80;;;;;;4805620;29;20054;-91
2021/04/23 01:24:03;;;;;;;5.28;4.10;;;358.90;1740.80;;;;;;4808274;29;20471;-87
2021/04/23 01:26:39;;;;;;;4.88;3.42;;;359.00;1715.20;;;;;;4792277;29;20484;-91
2021/04/23 01:29:07;;;;;;;5.95;3.53;;;359.00;1715.20;;;;;;4792334;29;20082;-91
2021/04/23 01:31:35;;;;;;;5.63;3.40;;;359.00;1715.20;;;;;;4793024;29;20042;-91
2021/04/23 01:34:19;;;;;;;7.13;2.80;;;358.90;1740.80;;;;;;4793609;29;20042;-90
2021/04/23 01:36:46;;;;;;;4.65;3.15;;;359.00;1740.80;;;;;;4792311;29;20031;-87
2021/04/23 01:39:15;;;;;;;5.18;3.40;;;359.00;1740.80;;;;;;4792530;29;20070;-91
2021/04/23 01:41:41;;;;;;;4.88;2.90;;;358.90;1766.40;;;;;;4792529;29;20053;-90
2021/04/23 01:44:08;;;;;;;4.45;3.38;;;358.90;1766.40;;;;;;4792541;29;20046;-91
2021/04/23 01:46:34;;;;;;;7.15;3.85;;;358.90;1766.40;;;;;;4792062;29;20507;-87
2021/04/23 01:49:03;;;;;;;6.30;4.30;;;358.80;1766.40;;;;;;4792494;29;20043;-91
2021/04/23 01:51:30;;;;;;;9.65;4.88;;;358.90;1766.40;;;;;;4792271;29;20047;-86
2021/04/23 01:53:56;;;;;;;9.63;3.95;;;359.00;1766.40;;;;;;4797973;29;20031;-87
2021/04/23 01:56:22;;;;;;;5.43;4.32;;;358.90;1740.80;;;;;;4796257;29;20039;-90
2021/04/23 01:58:48;;;;;;;5.38;3.75;;;359.00;1740.80;;;;;;4791841;29;20374;-91
2021/04/23 02:01:14;;;;;;;5.88;3.92;;;358.90;1766.40;;;;;;4791803;29;20059;-86
2021/04/23 02:03:41;;;;;;;5.63;3.70;;;358.80;1792.00;;;;;;4791778;29;20058;-91
2021/04/23 02:06:09;;;;;;;4.90;3.28;;;358.80;1766.40;;;;;;4791883;29;20059;-91
2021/04/23 02:08:35;;;;;;;5.20;3.50;;;358.80;1766.40;;;;;;4796328;29;20053;-85
2021/04/23 02:11:16;;;;;;;7.25;4.88;;;358.90;1766.40;;;;;;4799699;29;20035;-91
2021/04/23 02:13:45;;;;;;;6.93;5.00;;;358.80;1843.20;;;;;;4816129;29;20129;-91
2021/04/23 02:16:12;;;;;;;8.75;4.05;;;358.70;1817.60;;;;;;4808227;29;20041;-91
2021/04/23 02:18:38;;;;;;;7.82;5.55;;;358.60;1817.60;;;;;;4792454;29;20043;-91
2021/04/23 02:21:06;;;;;;;6.68;5.18;;;358.50;1868.80;;;;;;4792052;29;20054;-91
2021/04/23 02:23:33;;;;;;;10.88;6.72;;;358.50;1868.80;;;;;;4808571;29;20107;-91
2021/04/23 02:25:59;;;;;;;11.55;8.43;;;358.50;1868.80;;;;;;4792721;29;20133;-90
2021/04/23 02:28:25;;;;;;;12.13;7.47;;;358.60;1843.20;;;;;;4791761;29;20039;-89
2021/04/23 02:31:02;;;;;;;9.60;7.68;;;358.60;1843.20;;;;;;4792279;29;20386;-90
2021/04/23 02:33:28;;;;;;;12.30;7.22;;;358.60;1843.20;;;;;;4805274;29;20045;-90
2021/04/23 02:35:57;;;;;;;23.05;15.50;;;358.60;1843.20;;;;;;4804615;29;20066;-87
2021/04/23 02:38:24;;;;;;;45.53;29.52;;;358.60;1843.20;;;;;;4799564;29;20061;-90
2021/04/23 02:40:50;;;;;;;13.13;7.90;;;358.60;1843.20;;;;;;4791527;29;20603;-90
2021/04/23 02:43:20;;;;;;;10.57;7.85;;;358.50;1868.80;;;;;;4790882;29;20111;-86
2021/04/23 02:45:47;;;;;;;51.83;30.13;;;358.50;1843.20;;;;;;4791574;29;20041;-91
2021/04/23 02:48:14;;;;;;;13.93;10.50;;;358.50;1868.80;;;;;;4791421;29;20039;-91
2021/04/23 02:50:47;;;;;;;14.35;9.40;;;358.50;1868.80;;;;;;4792011;29;20067;-91
2021/04/23 02:53:15;;;;;;;13.52;9.45;;;358.50;1868.80;;;;;;4791548;29;20493;-86
2021/04/23 02:55:41;;;;;;;18.63;13.07;;;358.50;1868.80;;;;;;4791366;29;20129;-86
2021/04/23 02:58:14;;;;;;;16.23;9.25;;;358.50;1894.40;;;;;;4791281;29;20103;-90
2021/04/23 03:00:46;;;;;;;15.00;10.25;;;358.50;1868.80;;;;;;4791291;29;20077;-90
2021/04/23 03:03:12;;;;;;;14.70;10.38;;;358.50;1894.40;;;;;;4791573;29;20046;-91
2021/04/23 03:05:40;;;;;;;12.95;10.63;;;358.50;1894.40;;;;;;4791800;29;20043;-90
2021/04/23 03:08:07;;;;;;;16.17;10.43;;;333.70;1920.00;;;;;;4794422;29;20145;-90
2021/04/23 03:10:39;;;;;;;18.52;10.95;;;333.70;1920.00;;;;;;4808105;29;20043;-87
2021/04/23 03:13:08;;;;;;;16.40;11.35;;;358.40;1920.00;;;;;;4814429;29;20039;-86
2021/04/23 03:15:34;;;;;;;13.38;10.38;;;333.70;1920.00;;;;;;4811455;29;20031;-86
2021/04/23 03:18:00;;;;;;;15.00;10.80;;;333.70;1920.00;;;;;;4812174;29;20043;-91
2021/04/23 03:20:27;;;;;;;13.98;11.02;;;333.70;1920.00;;;;;;4795593;29;20053;-89
2021/04/23 03:22:54;;;;;;;15.50;11.77;;;333.60;1945.60;;;;;;4798624;29;20085;-90
2021/04/23 03:25:21;;;;;;;17.08;13.20;;;333.60;1945.60;;;;;;4801656;29;20092;-90
2021/04/23 03:27:48;;;;;;;17.08;11.25;;;333.70;1945.60;;;;;;4791423;29;20046;-90
2021/04/23 03:30:18;;;;;;;19.38;12.32;;;333.60;1945.60;;;;;;4791376;29;20047;-90
2021/04/23 03:32:44;;;;;;;19.20;12.00;;;333.70;1945.60;;;;;;4791610;29;20092;-90
2021/04/23 03:35:11;;;;;;;19.80;12.45;;;333.60;1971.20;;;;;;4791534;29;20547;-90
2021/04/23 03:37:38;;;;;;;17.60;13.20;;;333.70;1945.60;;;;;;4791143;29;20050;-90
2021/04/23 03:40:05;;;;;;;20.33;13.60;;;358.50;1945.60;;;;;;4791796;29;20104;-91
2021/04/23 03:42:31;;;;;;;17.75;12.88;;;333.60;1971.20;;;;;;4791483;29;20039;-90
2021/04/23 03:44:58;;;;;;;19.80;15.35;;;333.50;1971.20;;;;;;4791409;29;20111;-90
2021/04/23 03:47:24;;;;;;;25.08;20.30;;;333.50;1971.20;;;;;;4791125;29;20035;-90
2021/04/23 03:49:50;;;;;;;23.77;16.65;;;333.40;1996.80;;;;;;4791123;29;20054;-90
2021/04/23 03:52:16;;;;;;;22.60;16.90;;;333.50;1971.20;;;;;;4790755;29;20070;-90
2021/04/23 03:54:42;;;;;;;24.45;17.65;;;333.40;1996.80;;;;;;4792843;29;20489;-90
2021/04/23 03:57:08;;;;;;;29.48;20.88;;;333.50;1971.20;;;;;;4794039;29;20035;-90
2021/04/23 03:59:33;;;;;;;33.72;21.77;;;333.40;1996.80;;;;;;4804819;29;20054;-90
2021/04/23 04:01:59;;;;;;;30.42;21.02;;;333.40;1996.80;;;;;;4811962;29;20125;-89
2021/04/23 04:04:25;;;;;;;36.58;23.33;;;333.40;1996.80;;;;;;4812557;29;20103;-91
2021/04/23 04:06:51;;;;;;;37.30;29.33;;;333.50;1996.80;;;;;;4811915;29;20042;-89
2021/04/23 04:09:18;;;;;;;33.58;24.63;;;333.50;1996.80;;;;;;4812901;29;20046;-90
2021/04/23 04:11:44;;;;;;;34.70;23.58;;;333.50;1996.80;;;;;;4812233;29;20034;-90
2021/04/23 04:14:10;;;;;;;31.05;21.30;;;333.50;1996.80;;;;;;4812761;29;20041;-90
2021/04/23 04:16:36;;;;;;;35.88;25.25;;;333.60;1996.80;;;;;;4812470;29;20042;-90
2021/04/23 04:19:03;;;;;;;34.78;23.80;;;333.60;1996.80;;;;;;4815014;29;20042;-89
2021/04/23 04:21:29;;;;;;;42.22;25.45;;;333.60;1996.80;;;;;;4821139;29;20069;-89
2021/04/23 04:23:55;;;;;;;30.98;22.48;;;333.50;1996.80;;;;;;4820542;29;20069;-90
2021/04/23 04:26:21;;;;;;;33.88;24.70;;;333.50;1996.80;;;;;;4821663;29;20038;-91
2021/04/23 04:28:47;;;;;;;42.13;25.70;;;333.40;2022.40;;;;;;4816868;29;20042;-91
2021/04/23 04:31:12;;;;;;;59.50;34.30;;;333.40;2048.00;;;;;;4806931;29;20050;-87
2021/04/23 04:33:39;;;;;;;62.15;35.65;;;333.20;2099.20;;;;;;4806604;29;20054;-91
2021/04/23 04:36:05;;;;;;;39.08;26.67;;;333.30;2073.60;;;;;;4815268;29;20058;-89
2021/04/23 04:38:31;;;;;;;35.08;23.27;;;333.40;2022.40;;;;;;4833802;29;20029;-91
2021/04/23 04:40:57;;;;;;;30.02;21.70;;;333.40;2048.00;;;;;;4828556;29;20027;-90
2021/04/23 04:43:23;;;;;;;33.20;22.52;;;333.20;2073.60;;;;;;4834892;29;20110;-90
2021/04/23 04:45:49;;;;;;;30.48;21.45;;;333.20;2099.20;;;;;;4834747;29;20047;-90
2021/04/23 04:48:15;;;;;;;39.80;22.27;;;333.20;2073.60;;;;;;4847313;29;20074;-91
2021/04/23 04:50:48;;;;;;;36.78;22.48;;;333.20;2073.60;;;;;;4825770;29;20068;-91
2021/04/23 04:53:16;;;;;;;29.42;20.02;;;333.20;2073.60;;;;;;4820163;29;20088;-91
2021/04/23 04:55:44;;;;;;;28.98;21.33;;;333.20;2099.20;;;;;;4811288;29;20039;-92
2021/04/23 04:58:14;;;;;;;25.65;18.95;;;333.20;2099.20;;;;;;4811784;29;20101;-91
2021/04/23 05:00:42;;;;;;;26.20;19.80;;;333.30;2073.60;;;;;;4812500;29;20492;-91
2021/04/23 05:03:09;;;;;;;24.95;18.63;;;333.40;2048.00;;;;;;4811506;29;20046;-91
2021/04/23 05:05:35;;;;;;;27.48;19.30;;;333.20;2073.60;;;;;;4811452;29;20082;-89
2021/04/23 05:08:01;;;;;;;29.73;19.20;;;333.10;2099.20;;;;;;4811549;29;20547;-90
2021/04/23 05:10:27;;;;;;;26.45;19.90;;;333.00;2099.20;;;;;;4810448;29;20039;-90
2021/04/23 05:12:54;;;;;;;26.40;19.33;;;332.90;2124.80;;;;;;4811026;29;20176;-90
2021/04/23 05:15:20;;;;;;;28.63;20.80;;;332.90;2099.20;;;;;;4810875;29;20042;-89
2021/04/23 05:17:47;;;;;;;34.05;22.48;;;333.20;2073.60;;;;;;4810679;29;20096;-88
2021/04/23 05:20:15;;;;;;;51.58;25.85;;;333.10;2099.20;;;;;;4810705;29;20121;-86
2021/04/23 05:22:41;;;;;;;34.00;24.42;;;333.00;2124.80;;;;;;4810637;29;20423;-89
2021/04/23 05:25:10;;;;;;;37.63;25.13;;;333.20;2073.60;;;;;;4804358;29;20050;-89
2021/04/23 05:27:36;;;;;;;35.78;25.13;;;333.30;2048.00;;;;;;4796361;29;20085;-89
2021/04/23 05:30:08;;;;;;;39.30;24.65;;;333.30;2073.60;;;;;;4792500;29;20485;-89
2021/04/23 05:32:34;;;;;;;34.83;25.30;;;333.40;2048.00;;;;;;4792806;29;20034;-89
2021/04/23 05:35:00;;;;;;;34.25;24.73;;;333.40;2048.00;;;;;;4792440;29;20880;-89
2021/04/23 05:37:26;;;;;;;47.50;32.08;;;333.40;1996.80;;;;;;4792595;29;20062;-88
2021/04/23 05:39:52;;;;;;;39.95;28.15;;;333.40;1971.20;;;;;;4792334;29;20084;-89
2021/04/23 05:42:18;;;;;;;40.80;26.30;;;333.40;1894.40;;;;;;4792060;29;20051;-89
2021/04/23 05:44:44;;;;;;;36.17;24.60;;;333.30;1894.40;;;;;;4792591;29;20102;-88
2021/04/23 05:47:11;;;;;;;32.72;24.48;;;333.40;1868.80;;;;;;4794775;29;20108;-88
2021/04/23 05:49:37;;;;;;;35.78;25.65;;;333.20;1894.40;;;;;;4796939;29;20179;-88
2021/04/23 05:52:05;;;;;;;35.28;25.50;;;333.30;1920.00;;;;;;4794815;29;20130;-88
2021/04/23 05:54:31;;;;;;;42.08;29.33;;;333.30;1894.40;;;;;;4792280;29;20039;-87
2021/04/23 05:56:57;;;;;;;35.55;25.42;;;333.20;1920.00;;;;;;4791917;29;20122;-88
2021/04/23 05:59:23;;;;;;;38.42;25.38;;;333.40;1894.40;;;;;;4792144;29;20038;-88
2021/04/23 06:01:49;;;;;;;30.35;22.98;;;333.40;1868.80;;;;;;4792185;29;20465;-88
2021/04/23 06:04:15;;;;;;;30.48;23.17;;;333.30;1843.20;;;;;;4803227;29;20051;-88
2021/04/23 06:06:41;;;;;;;37.00;22.20;;;333.40;1817.60;;;;;;4792484;29;20065;-88
2021/04/23 06:09:07;;;;;;;30.35;20.85;;;333.50;1868.80;;;;;;4808583;29;20483;-87
2021/04/23 06:11:34;;;;;;;33.15;25.58;;;333.60;1868.80;;;;;;4810349;29;20043;-88
2021/04/23 06:14:00;;;;;;;32.15;23.92;;;333.40;1817.60;;;;;;4811623;29;20110;-88
2021/04/23 06:16:26;;;;;;;31.92;24.13;;;333.40;1868.80;;;;;;4810963;29;20066;-88
2021/04/23 06:18:51;;;;;;;30.33;21.70;;;333.50;1766.40;;;;;;4810289;29;20041;-88
2021/04/23 06:21:18;;;;;;;36.40;22.92;;;333.40;1843.20;;;;;;4816299;29;20132;-88
2021/04/23 06:23:44;;;;;;;33.38;23.55;;;333.50;1817.60;;;;;;4825646;29;20054;-88
2021/04/23 06:26:09;;;;;;;35.00;25.23;;;333.50;1740.80;;;;;;4826810;29;20111;-87
2021/04/23 06:28:35;;;;;;;32.40;23.13;;;333.60;1792.00;;;;;;4809932;29;20050;-88
2021/04/23 06:31:03;;;;;;;27.73;21.38;;;333.60;1792.00;;;;;;4812699;29;20058;-89
2021/04/23 06:33:35;;;;;;;45.28;35.40;;;333.50;1766.40;;;;;;4810325;29;20506;-89
2021/04/23 06:36:02;;;;;;;37.20;27.10;;;333.70;1766.40;;;;;;4809784;29;20049;-88
2021/04/23 06:38:28;;;;;;;32.70;22.48;;;333.70;1817.60;;;;;;4810245;29;20130;-86
2021/04/23 06:40:54;;;;;;;31.08;22.75;;;333.70;1792.00;;;;;;4810749;29;20080;-87
2021/04/23 06:43:19;;;;;;;34.67;23.42;;;333.60;1792.00;;;;;;4811603;29;20084;-88
2021/04/23 06:45:45;;;;;;;30.33;20.48;;;333.40;1792.00;;;;;;4817609;29;20555;-88
2021/04/23 06:48:13;;;;;;;36.13;28.00;;;333.40;1792.00;;;;;;4819635;29;20069;-90
2021/04/23 06:50:42;;;;;;;30.48;21.52;;;333.40;1817.60;;;;;;4820373;29;20034;-89
2021/04/23 06:53:08;;;;;;;31.15;22.60;;;333.30;1792.00;;;;;;4826168;29;20022;-90
2021/04/23 06:55:34;;;;;;;31.80;21.40;;;333.30;1792.00;;;;;;4822894;29;20038;-89
2021/04/23 06:58:00;;;;;;;37.92;24.25;;;333.40;1766.40;;;;;;4830300;29;20101;-88
2021/04/23 07:00:29;;;;;;;24.75;15.38;;;333.40;1792.00;;;;;;4826568;29;20175;-88
2021/04/23 07:02:56;;;;;;;23.05;12.93;;;333.30;1689.60;;;;;;4827838;29;20076;-89
2021/04/23 07:05:23;;;;;;;22.75;14.27;;;333.20;1638.40;;;;;;4831556;29;20026;-89
2021/04/23 07:07:49;;;;;;;18.95;11.75;;;333.30;1638.40;;;;;;4830586;29;20125;-89
2021/04/23 07:10:17;;;;;;;19.33;11.18;;;333.30;1612.80;;;;;;4825023;29;20046;-89
2021/04/23 07:12:43;;;;;;;22.52;13.80;;;333.40;1587.20;;;;;;4812510;29;20042;-89
2021/04/23 07:15:14;;;;;;;23.27;14.05;;;333.40;1587.20;;;;;;4811368;29;20046;-88
2021/04/23 07:17:39;;;;;;;23.27;15.75;;;333.40;1561.60;;;;;;4812915;29;20041;-88
2021/04/23 07:20:06;;;;;;;22.40;12.70;;;333.40;1587.20;;;;;;4813311;29;20038;-88
2021/04/23 07:22:31;;;;;;;19.27;11.73;;;333.40;1510.40;;;;;;4812308;29;20062;-88
2021/04/23 07:24:57;;;;;;;20.48;12.10;;;333.40;1536.00;;;;;;4817468;29;20030;-89
2021/04/23 07:27:23;;;;;;;40.40;18.35;;;333.40;1536.00;;;;;;4813117;29;20053;-88
2021/04/23 07:29:49;;;;;;;24.77;16.13;;;333.40;1510.40;;;;;;4810284;29;20495;-88
2021/04/23 07:32:14;;;;;;;32.63;19.65;;;333.40;1561.60;;;;;;4812506;29;20042;-86
2021/04/23 07:34:47;;;;;;;30.42;18.33;;;333.20;1587.20;;;;;;4810273;29;20126;-87
2021/04/23 07:37:12;;;;;;;41.70;24.00;;;333.20;1612.80;;;;;;4809778;29;20030;-87
2021/04/23 07:39:38;;;;;;;30.13;17.52;;;333.00;1638.40;;;;;;4809430;29;20069;-90
2021/04/23 07:42:04;;;;;;;31.30;18.40;;;333.20;1638.40;;;;;;4825749;29;20031;-86
2021/04/23 07:44:30;;;;;;;27.73;20.77;;;333.30;1612.80;;;;;;4812000;29;20053;-87
2021/04/23 07:46:56;;;;;;;26.25;15.93;;;333.40;1587.20;;;;;;4820661;29;20034;-88
2021/04/23 07:49:22;;;;;;;22.23;14.18;;;333.40;1587.20;;;;;;4833078;29;20122;-88
2021/04/23 07:52:11;;;;;;;30.83;19.42;;;333.20;1612.80;;;;;;4834385;29;20116;-86
2021/04/23 07:55:18;;;;;;;24.80;14.02;;;333.30;1612.80;;;;;;4834607;29;20030;-89
2021/04/23 07:57:44;;;;;;;20.85;13.98;;;333.20;1612.80;;;;;;4796181;29;20027;-90
2021/04/23 08:00:29;;;;;;;21.55;13.52;;;333.10;1638.40;;;;;;4778861;30;20032;-88
2021/04/23 08:02:55;;;;;;;25.10;15.02;;;333.00;1587.20;;;;;;4765687;30;20048;-90
2021/04/23 08:05:29;;;;;;;28.58;18.02;;;333.20;1587.20;;;;;;4763366;30;20107;-87
2021/04/23 08:08:29;;;;;;;36.17;21.02;;;333.20;1612.80;;;;;;4757567;30;20044;-87
2021/04/23 08:18:19;;;;;;;;;;;;;;;;;;;;;
2021/04/23 08:24:08;;;;;;;21.05;12.98;;;333.20;1587.20;;;;;;4691441;30;20178;-85
2021/04/23 08:30:13;;;;;;;;;;;333.30;1587.20;;;;;;4641251;30;20043;-88
2021/04/23 08:32:39;;;;;;;27.42;17.85;;;333.20;1587.20;;;;;;4645089;30;19967;-87
2021/04/23 08:35:15;;;;;;;18.83;12.20;;;333.20;1612.80;;;;;;4668208;30;20116;-87
2021/04/23 08:37:42;;;;;;;24.67;13.00;;;333.30;1536.00;;;;;;4667288;30;20042;-88
2021/04/23 08:40:19;;;;;;;22.15;14.63;;;333.20;1536.00;;;;;;4608066;30;20047;-87
2021/04/23 08:42:58;;;;;;;;;;;;;;;;;;;;;
2021/04/23 08:45:27;;;;;;;18.70;13.60;;;333.20;1536.00;;;;;;4584347;31;20048;-88
2021/04/23 08:47:58;;;;;;;30.92;19.17;;;333.30;1587.20;;;;;;4592651;30;20108;-87
2021/04/23 08:50:26;;;;;;;18.77;12.20;;;333.60;1561.60;;;;;;4621594;30;20070;-87
2021/04/23 08:53:01;;;;;;;29.70;18.70;;;333.60;1510.40;;;;;;4649524;30;20526;-87
2021/04/23 08:56:23;;;;;;;24.20;14.40;;;333.60;1484.80;;;;;;4617388;31;20135;-87
2021/04/23 08:58:49;;;;;;;25.73;13.07;;;333.60;1536.00;;;;;;4647734;30;20051;-87
2021/04/23 09:01:16;;;;;;;44.05;17.05;;;358.40;1510.40;;;;;;4670350;30;20089;-86
2021/04/23 09:03:42;;;;;;;38.40;15.82;;;358.50;1459.20;;;;;;4683238;30;20058;-86
2021/04/23 09:06:16;;;;;;;24.88;12.82;;;358.60;1459.20;;;;;;4706363;30;20044;-87
2021/04/23 09:08:50;;;;;;;15.70;10.18;;;358.70;1433.60;;;;;;4735771;30;20556;-87
2021/04/23 09:11:24;;;;;;;23.67;13.05;;;358.60;1459.20;;;;;;4736090;30;20130;-86
2021/04/23 09:13:56;;;;;;;22.40;12.48;;;358.80;1459.20;;;;;;4710490;30;20138;-88
2021/04/23 09:16:50;;;;;;;20.50;11.38;;;358.90;1433.60;;;;;;4727363;30;20044;-84
2021/04/23 09:19:27;;;;;;;16.08;10.52;;;359.00;1408.00;;;;;;4772926;29;20035;-82
2021/04/23 09:22:01;;;;;;;16.35;9.18;;;359.10;1408.00;;;;;;4772743;30;20047;-85
2021/04/23 09:24:34;;;;;;;13.63;8.10;;;359.20;1408.00;;;;;;4789601;29;20115;-83
2021/04/23 09:27:07;;;;;;;;;;;359.30;1356.80;;;;;;4815724;29;20504;-84
2021/04/23 09:29:35;;;;;;;9.38;6.70;;;359.30;1356.80;;;;;;4810390;29;19920;-86
2021/04/23 09:32:25;;;;;;;17.58;9.30;;;384.10;1356.80;;;;;;4810295;29;20046;-88
2021/04/23 09:35:12;;;;;;;30.17;13.52;;;384.20;1331.20;;;;;;4813455;29;20042;-86
2021/04/23 09:37:50;;;;;;;20.23;10.70;;;384.60;1356.80;;;;;;4817576;29;20064;-86
2021/04/23 09:40:18;;;;;;;11.75;7.15;;;384.80;1305.60;;;;;;4815923;29;20087;-83
2021/04/23 09:42:46;;;;;;;19.15;9.95;;;384.90;1305.60;;;;;;4811678;29;20066;-86
2021/04/23 09:45:13;;;;;;;15.80;8.43;;;409.60;1331.20;;;;;;4807247;29;20100;-83
2021/04/23 09:47:39;;;;;;;13.45;6.90;;;409.70;1331.20;;;;;;4813624;29;20030;-83
2021/04/23 09:50:07;;;;;;;13.30;7.18;;;409.60;1305.60;;;;;;4831769;29;20042;-82
2021/04/23 09:52:33;;;;;;;19.27;7.82;;;409.70;1305.60;;;;;;4813810;29;20086;-82
2021/04/23 09:55:03;;;;;;;11.30;7.40;;;410.00;1382.40;;;;;;4812190;29;20133;-84
2021/04/23 09:57:36;;;;;;;17.23;8.38;;;410.10;1254.40;;;;;;4810656;29;20119;-83
2021/04/23 10:00:06;;;;;;;;;;;410.00;1254.40;;;;;;4806428;29;20050;-83
2021/04/23 10:02:33;;;;;;;11.55;7.30;;;410.40;1254.40;;;;;;4797872;29;20378;-84
2021/04/23 10:04:59;;;;;;;12.90;7.55;;;435.30;1254.40;;;;;;4809420;29;20045;-84
2021/04/23 10:07:29;;;;;;;15.63;7.20;;;435.60;1254.40;;;;;;4825403;29;20106;-84
2021/04/23 10:10:03;;;;;;;22.55;9.23;;;435.80;1228.80;;;;;;4808905;29;20066;-83
2021/04/23 10:12:32;;;;;;;16.10;7.03;;;436.10;1203.20;;;;;;4809347;29;20121;-83
2021/04/23 10:15:15;;;;;;;15.50;8.55;;;460.90;1228.80;;;;;;4809022;29;20042;-83
2021/04/23 10:17:45;;;;;;;11.95;6.75;;;461.10;1203.20;;;;;;4809034;29;20590;-83
2021/04/23 10:20:13;;;;;;;10.52;6.22;;;461.00;1126.40;;;;;;4808799;29;20045;-84
2021/04/23 10:22:39;;;;;;;11.20;6.15;;;461.30;1075.20;;;;;;4809186;29;20050;-85
2021/04/23 10:25:07;;;;;;;12.13;5.47;;;461.60;1152.00;;;;;;4809407;29;20135;-84
2021/04/23 10:27:34;;;;;;;9.68;5.85;;;461.60;1126.40;;;;;;4810378;29;20038;-85
2021/04/23 10:30:13;;;;;;;11.82;7.95;;;461.50;1100.80;;;;;;4809821;29;20139;-87
2021/04/23 10:32:59;;;;;;;10.10;5.63;;;461.60;1126.40;;;;;;4809604;29;20457;-86
2021/04/23 10:35:28;;;;;;;10.38;6.25;;;461.60;1100.80;;;;;;4809120;29;20046;-86
2021/04/23 10:38:13;;;;;;;10.85;6.00;;;461.60;1100.80;;;;;;4810258;29;20054;-85
2021/04/23 10:40:44;;;;;;;12.48;7.35;;;486.90;1126.40;;;;;;4809836;29;20083;-85
2021/04/23 10:43:12;;;;;;;10.30;6.30;;;486.90;1100.80;;;;;;4810148;29;20050;-86
2021/04/23 10:46:05;;;;;;;10.15;6.75;;;486.80;1075.20;;;;;;4809432;29;20433;-86
2021/04/23 10:48:43;;;;;;;13.45;6.85;;;487.00;1100.80;;;;;;4787612;29;20606;-86
2021/04/23 10:51:19;;;;;;;10.75;6.00;;;487.10;1049.60;;;;;;4772351;30;20554;-85
2021/04/23 10:54:05;;;;;;;10.13;5.82;;;486.90;1024.00;;;;;;4787072;29;20035;-84
2021/04/23 10:56:37;;;;;;;10.55;6.20;;;487.20;1075.20;;;;;;4772290;30;20126;-85
2021/04/23 10:59:29;;;;;;;12.38;6.75;;;487.30;972.80;;;;;;4772090;30;20043;-85
2021/04/23 11:02:15;;;;;;;14.82;6.20;;;512.10;998.40;;;;;;4787484;29;20039;-86
2021/04/23 11:04:58;;;;;;;12.05;6.88;;;512.10;1049.60;;;;;;4774163;30;20047;-84
2021/04/23 11:07:24;;;;;;;13.23;8.02;;;512.20;1024.00;;;;;;4776065;30;20134;-86
2021/04/23 11:10:05;;;;;;;9.10;6.53;;;512.20;998.40;;;;;;4776043;30;20062;-85
2021/04/23 11:12:31;;;;;;;14.48;7.20;;;512.10;998.40;;;;;;4775887;30;20038;-85
2021/04/23 11:15:18;;;;;;;13.85;8.18;;;512.40;998.40;;;;;;4775969;29;20047;-85
2021/04/23 11:17:45;;;;;;;15.15;7.30;;;512.50;972.80;;;;;;4776122;30;20126;-84
2021/04/23 11:20:26;;;;;;;10.50;6.00;;;512.60;972.80;;;;;;4776322;30;20050;-84
2021/04/23 11:22:54;;;;;;;12.93;9.02;;;512.50;972.80;;;;;;4776735;30;20051;-84
2021/04/23 11:25:21;;;;;;;11.30;7.45;;;512.40;998.40;;;;;;4792640;29;20070;-86
2021/04/23 11:28:11;;;;;;;12.82;7.20;;;487.30;1049.60;;;;;;4812272;29;20038;-83
2021/04/23 11:30:58;;;;;;;17.58;7.43;;;487.00;1024.00;;;;;;4812513;29;20448;-85
2021/04/23 11:33:46;;;;;;;13.00;8.73;;;512.10;1075.20;;;;;;4812205;29;20121;-85
2021/04/23 11:36:26;;;;;;;15.05;7.88;;;512.60;1024.00;;;;;;4812099;29;20061;-86
2021/04/23 11:39:07;;;;;;;16.65;7.78;;;512.90;947.20;;;;;;4812720;29;20042;-84
2021/04/23 11:41:33;;;;;;;11.45;7.45;;;512.80;947.20;;;;;;4812912;29;20045;-84
2021/04/23 11:43:59;;;;;;;9.60;6.13;;;537.70;998.40;;;;;;4812636;29;20058;-84
2021/04/23 11:46:50;;;;;;;21.48;8.63;;;512.10;972.80;;;;;;4812887;29;20113;-85
2021/04/23 11:49:16;;;;;;;10.68;6.28;;;512.20;1024.00;;;;;;4812352;29;20062;-84
2021/04/23 11:51:48;;;;;;;10.50;6.63;;;512.10;1024.00;;;;;;4812020;29;20038;-84
2021/04/23 11:54:25;;;;;;;10.43;6.78;;;512.10;998.40;;;;;;4811827;29;20034;-84
2021/04/23 11:56:51;;;;;;;11.98;6.85;;;487.20;998.40;;;;;;4812303;29;20034;-84
2021/04/23 11:59:16;;;;;;;14.52;8.02;;;486.90;998.40;;;;;;4811596;29;20042;-83
2021/04/23 12:01:42;;;;;;;11.85;6.28;;;486.90;1024.00;;;;;;4811438;29;20034;-84
2021/04/23 12:04:08;;;;;;;12.32;7.88;;;512.20;1024.00;;;;;;4816992;29;20050;-84
2021/04/23 12:06:34;;;;;;;11.77;5.75;;;537.60;1049.60;;;;;;4816014;29;20101;-84
2021/04/23 12:09:00;;;;;;;10.50;5.93;;;512.90;972.80;;;;;;4820817;29;20042;-84
2021/04/23 12:11:26;;;;;;;15.10;7.65;;;512.50;972.80;;;;;;4834720;29;20027;-84
2021/04/23 12:13:51;;;;;;;14.25;7.55;;;537.60;972.80;;;;;;4833094;29;20120;-83
2021/04/23 12:16:20;;;;;;;13.68;6.68;;;537.60;896.00;;;;;;4831534;29;20114;-84
2021/04/23 12:18:50;;;;;;;19.05;8.57;;;512.50;896.00;;;;;;4832328;29;20038;-85
2021/04/23 12:21:17;;;;;;;21.17;11.43;;;512.60;896.00;;;;;;4832061;29;20030;-85
2021/04/23 12:23:43;;;;;;;11.57;5.35;;;512.90;896.00;;;;;;4829101;29;20076;-84
2021/04/23 12:26:11;;;;;;;11.23;5.97;;;538.00;947.20;;;;;;4830405;29;20042;-84
2021/04/23 12:28:50;;;;;;;12.93;5.53;;;538.20;947.20;;;;;;4812311;29;20498;-85
2021/04/23 12:31:22;;;;;;;8.57;5.43;;;538.50;921.60;;;;;;4811853;29;20066;-84
2021/04/23 12:33:50;;;;;;;11.75;7.50;;;563.50;870.40;;;;;;4811688;29;20042;-87
2021/04/23 12:36:25;;;;;;;15.50;6.38;;;563.60;896.00;;;;;;4799027;29;20050;-85